Time;durP1;ratioP1;P1;durP2;ratioP2;P2;SDS_P1;SDS_P2;PMS_P1;PMS_P2;Temp;Humidity;BMP_temperature;BMP_pressure;BME280_temperature;BME280_humidity;BME280_pressure;Samples;Min_cycle;Max_cycle;Signal;HPM_P1;HPM_P2
2022/12/05 00:02:52;;;;;;;18.50;13.33;;;;;;;-0.61;69.39;100596.19;10118549;29;20285;-82
2022/12/05 00:08:14;;;;;;;18.87;13.03;;;;;;;-0.29;68.23;100591.63;10110309;29;20241;-81
2022/12/05 00:13:39;;;;;;;18.70;13.40;;;;;;;-0.68;70.16;100601.88;10091014;29;20242;-82
2022/12/05 00:19:02;;;;;;;18.27;13.50;;;;;;;-0.61;69.96;100607.25;10110763;29;20220;-84
2022/12/05 00:24:25;;;;;;;21.70;14.00;;;;;;;-0.73;70.31;100603.75;10134556;29;20296;-83
2022/12/05 00:29:47;;;;;;;19.13;13.20;;;;;;;-0.08;68.39;100600.22;10116338;29;20316;-79
2022/12/05 00:35:09;;;;;;;19.00;13.03;;;;;;;-0.93;71.29;100607.88;10130435;29;20619;-81
2022/12/05 00:40:34;;;;;;;19.23;13.53;;;;;;;-0.79;71.25;100599.22;10115207;29;20225;-81
2022/12/05 00:46:07;;;;;;;18.50;12.97;;;;;;;-0.49;69.96;100600.50;10102702;29;20241;-80
2022/12/05 00:51:38;;;;;;;16.83;12.80;;;;;;;-0.82;71.33;100598.63;10108687;29;20313;-80
2022/12/05 00:57:00;;;;;;;18.47;13.40;;;;;;;-0.46;70.32;100588.91;10070683;29;20231;-80
2022/12/05 01:02:22;;;;;;;17.63;13.53;;;;;;;-0.24;69.47;100591.72;10074894;29;20310;-79
2022/12/05 01:07:44;;;;;;;17.90;13.07;;;;;;;-0.00;68.60;100580.34;10081234;29;20230;-82
2022/12/05 01:13:06;;;;;;;17.60;13.10;;;;;;;-0.65;70.99;100581.16;10082073;29;20317;-82
2022/12/05 01:18:29;;;;;;;19.83;13.67;;;;;;;-0.72;71.04;100586.03;10097260;29;20516;-82
2022/12/05 01:23:51;;;;;;;20.20;13.67;;;;;;;-0.49;70.91;100580.28;10082424;29;20229;-82
2022/12/05 01:29:15;;;;;;;18.07;13.30;;;;;;;-0.23;69.78;100584.25;10087956;29;20249;-83
2022/12/05 01:34:37;;;;;;;18.87;13.27;;;;;;;-0.35;70.42;100589.91;10083261;29;20258;-82
2022/12/05 01:39:59;;;;;;;22.50;13.87;;;;;;;-0.74;72.61;100591.84;10082949;29;20222;-82
2022/12/05 01:45:32;;;;;;;19.70;13.03;;;;;;;-0.37;71.13;100591.25;10081251;29;20202;-82
2022/12/05 01:50:56;;;;;;;18.30;13.33;;;;;;;-0.51;71.58;100586.09;10091206;29;20264;-84
2022/12/05 01:56:18;;;;;;;18.57;13.43;;;;;;;-0.13;70.50;100593.50;10119629;29;20232;-83
2022/12/05 02:01:40;;;;;;;20.73;13.60;;;;;;;-0.42;71.70;100605.00;10081322;29;20206;-83
2022/12/05 02:07:02;;;;;;;22.93;14.53;;;;;;;-0.56;72.28;100610.91;10125865;29;20233;-82
2022/12/05 02:12:25;;;;;;;20.53;13.37;;;;;;;-0.69;73.66;100599.38;10112990;29;20589;-82
2022/12/05 02:18:18;;;;;;;16.67;12.90;;;;;;;-0.31;71.63;100606.81;10099972;29;20233;-83
2022/12/05 02:23:49;;;;;;;20.83;14.07;;;;;;;-0.59;72.66;100605.03;10101453;29;20234;-83
2022/12/05 02:29:39;;;;;;;20.47;13.50;;;;;;;-1.00;73.37;100609.97;10112192;29;20674;-82
2022/12/05 02:35:29;;;;;;;19.37;13.63;;;;;;;-0.83;74.19;100604.41;10113354;29;20556;-82
2022/12/05 02:40:59;;;;;;;18.10;13.53;;;;;;;-0.37;71.83;100614.25;10101934;29;20252;-82
2022/12/05 02:46:23;;;;;;;17.53;13.23;;;;;;;-1.05;73.39;100612.66;10118682;29;20236;-82
2022/12/05 02:51:47;;;;;;;19.67;13.77;;;;;;;-0.59;72.46;100605.88;10093582;29;20336;-82
2022/12/05 02:57:11;;;;;;;20.17;13.47;;;;;;;-0.70;72.54;100606.00;10111830;29;20206;-81
2022/12/05 03:02:33;;;;;;;18.90;13.53;;;;;;;-0.60;73.52;100604.19;10115707;29;20197;-81
2022/12/05 03:07:57;;;;;;;20.93;13.33;;;;;;;-0.43;72.07;100614.41;10102026;29;20222;-81
2022/12/05 03:13:26;;;;;;;20.87;13.90;;;;;;;-0.64;72.55;100621.59;10119503;29;20225;-82
2022/12/05 03:18:55;;;;;;;18.50;12.73;;;;;;;-0.38;71.07;100611.72;10123654;29;20241;-81
2022/12/05 03:24:18;;;;;;;21.03;12.97;;;;;;;-0.43;71.72;100611.63;10124307;29;20201;-82
2022/12/05 03:29:49;;;;;;;20.57;13.17;;;;;;;-0.50;71.59;100609.06;10103995;29;20296;-81
2022/12/05 03:35:19;;;;;;;19.87;12.43;;;;;;;-0.46;71.64;100612.97;10103701;29;20194;-82
2022/12/05 03:40:48;;;;;;;18.60;13.07;;;;;;;-0.54;71.50;100605.13;10103179;29;20202;-82
2022/12/05 03:46:22;;;;;;;15.43;12.00;;;;;;;-0.25;70.35;100600.28;10111805;29;20214;-83
2022/12/05 03:52:08;;;;;;;18.70;13.93;;;;;;;-0.51;73.12;100607.41;10102979;29;20285;-83
2022/12/05 03:57:34;;;;;;;18.87;13.20;;;;;;;-0.50;73.84;100603.53;10123995;29;20213;-83
2022/12/05 04:03:04;;;;;;;19.73;13.17;;;;;;;-0.16;71.19;100604.25;10115838;29;20276;-82
2022/12/05 04:08:29;;;;;;;19.47;13.37;;;;;;;-0.61;73.19;100607.25;10119453;29;20201;-82
2022/12/05 04:13:54;;;;;;;21.47;13.30;;;;;;;-0.72;74.26;100610.94;10122475;29;20266;-81
2022/12/05 04:25:32;;;;;;;20.23;13.57;;;;;;;-0.48;72.14;100617.97;10132431;29;20261;-82
2022/12/05 04:31:02;;;;;;;19.13;12.37;;;;;;;-0.56;73.65;100622.00;10101955;29;20221;-81
2022/12/05 04:36:28;;;;;;;20.33;13.00;;;;;;;-0.66;73.97;100621.00;10099733;29;20197;-82
2022/12/05 04:42:17;;;;;;;19.63;13.43;;;;;;;-0.75;75.65;100628.06;10124828;29;20201;-82
2022/12/05 04:47:42;;;;;;;19.50;12.27;;;;;;;-0.47;74.00;100630.69;10099583;29;20197;-83
2022/12/05 04:53:05;;;;;;;18.10;12.60;;;;;;;-0.53;74.77;100634.50;10102829;29;20261;-81
2022/12/05 04:58:28;;;;;;;20.10;12.53;;;;;;;-0.48;74.05;100624.34;10116160;29;20197;-81
2022/12/05 05:03:58;;;;;;;15.83;11.40;;;;;;;-0.62;74.48;100623.03;10114302;29;20218;-80
2022/12/05 05:09:20;;;;;;;18.43;12.93;;;;;;;-0.71;74.22;100623.69;10108950;29;20201;-81
2022/12/05 05:14:42;;;;;;;18.13;11.67;;;;;;;-0.59;73.46;100621.66;10098137;29;20233;-81
2022/12/05 05:20:23;;;;;;;16.93;11.93;;;;;;;-0.71;73.73;100629.22;10122128;29;20201;-83
2022/12/05 05:25:51;;;;;;;17.57;12.10;;;;;;;-0.39;74.07;100627.50;10114635;29;20242;-81
2022/12/05 05:31:14;;;;;;;19.30;13.00;;;;;;;-0.33;73.22;100631.16;10109670;29;20213;-81
2022/12/05 05:36:36;;;;;;;16.03;12.03;;;;;;;-0.28;73.09;100634.00;10104964;29;20234;-80
2022/12/05 05:41:58;;;;;;;19.03;11.90;;;;;;;-0.50;74.65;100639.53;10124834;29;20288;-82
2022/12/05 05:47:20;;;;;;;18.97;12.97;;;;;;;-0.35;74.21;100644.44;10129958;29;20201;-83
2022/12/05 05:52:42;;;;;;;22.47;12.07;;;;;;;-0.59;75.72;100643.81;10139493;29;20222;-83
2022/12/05 05:58:04;;;;;;;15.80;12.23;;;;;;;-0.28;73.34;100645.94;10121869;29;20212;-81
2022/12/05 06:03:26;;;;;;;16.57;11.53;;;;;;;-0.86;76.46;100647.25;10134238;29;20591;-82
2022/12/05 06:08:49;;;;;;;15.70;11.33;;;;;;;-0.50;75.04;100650.59;10101166;29;20205;-82
2022/12/05 06:14:11;;;;;;;16.73;10.70;;;;;;;-0.42;74.31;100658.47;10100075;29;20274;-82
2022/12/05 06:19:33;;;;;;;18.03;11.60;;;;;;;-0.61;75.15;100657.91;10098282;29;20206;-81
2022/12/05 06:24:55;;;;;;;14.83;11.33;;;;;;;-0.68;76.01;100667.47;10109853;29;20253;-82
2022/12/05 06:30:17;;;;;;;13.60;10.53;;;;;;;-0.78;75.49;100667.31;10124044;29;20551;-82
2022/12/05 06:35:40;;;;;;;16.37;10.40;;;;;;;-0.43;74.11;100670.63;10099254;29;20193;-82
2022/12/05 06:41:06;;;;;;;12.57;9.57;;;;;;;-0.66;73.86;100681.91;10124677;29;20193;-81
2022/12/05 06:46:28;;;;;;;16.47;10.17;;;;;;;-0.83;74.69;100682.75;10121788;29;20201;-81
2022/12/05 06:51:52;;;;;;;16.70;10.07;;;;;;;-0.94;74.96;100685.59;10110879;29;20252;-82
2022/12/05 06:57:14;;;;;;;14.63;9.80;;;;;;;-0.85;74.91;100701.50;10108839;29;20289;-81
2022/12/05 07:02:36;;;;;;;13.07;10.00;;;;;;;-1.26;76.47;100701.91;10115325;29;20534;-81
2022/12/05 07:07:58;;;;;;;12.33;9.60;;;;;;;-1.16;76.08;100704.84;10130847;29;20257;-81
2022/12/05 07:13:21;;;;;;;14.47;9.97;;;;;;;-1.20;74.93;100703.66;10116858;29;20693;-81
2022/12/05 07:18:43;;;;;;;12.00;9.30;;;;;;;-1.02;73.70;100702.59;10119343;29;20236;-81
2022/12/05 07:24:05;;;;;;;13.83;10.00;;;;;;;-1.72;75.68;100716.72;10134605;29;20222;-81
2022/12/05 07:29:27;;;;;;;11.77;9.17;;;;;;;-1.68;75.27;100713.22;10095330;29;20209;-80
2022/12/05 07:34:49;;;;;;;11.03;8.80;;;;;;;-1.63;74.89;100707.78;10131685;29;20706;-80
2022/12/05 07:40:11;;;;;;;11.00;8.77;;;;;;;-1.51;74.35;100723.53;10129955;29;20213;-80
2022/12/05 07:45:34;;;;;;;11.97;8.87;;;;;;;-1.52;74.20;100727.38;10116198;29;20205;-80
2022/12/05 07:51:04;;;;;;;12.77;9.60;;;;;;;-1.69;75.17;100721.78;10105356;29;20249;-80
2022/12/05 07:56:26;;;;;;;10.63;8.80;;;;;;;-1.39;73.75;100724.31;10105690;29;20619;-80
2022/12/05 08:01:48;;;;;;;11.90;9.67;;;;;;;-1.49;73.87;100715.81;10114220;29;20201;-80
2022/12/05 08:07:10;;;;;;;12.90;9.97;;;;;;;-1.66;74.32;100733.19;10104277;29;20242;-80
2022/12/05 08:12:32;;;;;;;12.33;9.60;;;;;;;-1.48;74.41;100745.13;10103544;29;20245;-80
2022/12/05 08:17:54;;;;;;;13.80;9.70;;;;;;;-1.18;73.26;100738.28;10119505;29;20238;-79
2022/12/05 08:23:16;;;;;;;11.80;9.53;;;;;;;-1.24;74.32;100742.03;10102770;29;20250;-80
2022/12/05 08:28:39;;;;;;;11.17;8.83;;;;;;;-1.28;74.03;100751.06;10132429;29;20276;-80
2022/12/05 08:34:01;;;;;;;11.83;9.17;;;;;;;-1.43;74.33;100756.28;10127217;29;20290;-80
2022/12/05 08:39:23;;;;;;;11.63;9.53;;;;;;;-1.40;73.81;100755.81;10117238;29;20294;-79
2022/12/05 08:44:45;;;;;;;13.27;9.57;;;;;;;-1.37;74.02;100766.34;10138729;29;20193;-79
2022/12/05 08:50:07;;;;;;;13.10;9.50;;;;;;;-1.33;74.13;100775.84;10104409;29;20245;-79
2022/12/05 08:55:30;;;;;;;11.93;9.53;;;;;;;-1.21;73.52;100780.25;10115477;29;20654;-80
2022/12/05 09:00:52;;;;;;;12.13;9.50;;;;;;;-1.31;73.30;100782.81;10132068;29;20622;-80
2022/12/05 09:06:19;;;;;;;14.10;10.73;;;;;;;-1.35;73.82;100776.09;10125277;29;20692;-80
2022/12/05 09:11:45;;;;;;;12.67;10.07;;;;;;;-1.50;74.84;100783.22;10123422;29;20305;-80
2022/12/05 09:17:07;;;;;;;13.07;11.53;;;;;;;-1.41;74.30;100790.06;10121920;29;20253;-80
2022/12/05 09:22:29;;;;;;;15.90;11.50;;;;;;;-1.40;74.28;100783.47;10108536;29;20185;-80
2022/12/05 09:27:53;;;;;;;15.73;11.87;;;;;;;-1.43;74.35;100787.56;10133483;29;20261;-80
2022/12/05 09:33:15;;;;;;;17.90;11.67;;;;;;;-1.53;74.46;100794.78;10113086;29;20575;-80
2022/12/05 09:38:37;;;;;;;12.93;11.57;;;;;;;-1.63;75.39;100792.63;10121818;29;20198;-80
2022/12/05 09:44:04;;;;;;;14.60;11.27;;;;;;;-1.02;72.55;100794.75;10112849;29;20592;-80
2022/12/05 09:49:27;;;;;;;15.53;11.80;;;;;;;-0.97;72.56;100797.59;10113272;29;20255;-79
2022/12/05 09:54:52;;;;;;;12.17;9.60;;;;;;;-0.92;72.37;100800.47;10123302;29;20209;-79
2022/12/05 10:00:15;;;;;;;13.50;10.43;;;;;;;-1.32;73.28;100794.13;10141491;29;20313;-79
2022/12/05 10:05:43;;;;;;;12.60;9.77;;;;;;;-1.39;73.59;100796.19;10121431;29;20209;-80
2022/12/05 10:11:20;;;;;;;12.60;10.07;;;;;;;-1.01;71.85;100787.28;10126096;29;20201;-80
2022/12/05 10:16:49;;;;;;;11.90;8.77;;;;;;;-1.02;72.22;100791.13;10107528;29;20241;-80
2022/12/05 10:22:15;;;;;;;14.10;10.53;;;;;;;-1.04;71.99;100788.59;10087029;29;20212;-80
2022/12/05 10:27:42;;;;;;;12.90;10.70;;;;;;;-0.95;72.28;100789.88;10130231;29;20262;-80
2022/12/05 10:33:14;;;;;;;14.60;11.30;;;;;;;-1.38;73.85;100795.13;10099726;29;20256;-80
2022/12/05 10:38:36;;;;;;;11.40;10.07;;;;;;;-1.19;73.05;100799.38;10112944;29;20499;-80
2022/12/05 10:43:58;;;;;;;12.83;9.90;;;;;;;-0.67;70.05;100790.94;10111894;29;20265;-80
2022/12/05 10:49:21;;;;;;;12.93;11.07;;;;;;;-1.02;72.24;100796.66;10121131;29;20260;-79
2022/12/05 10:54:48;;;;;;;11.73;9.63;;;;;;;-0.96;70.72;100784.59;10123321;29;20332;-80
2022/12/05 11:00:14;;;;;;;11.70;9.57;;;;;;;-1.36;72.52;100787.41;10119748;29;20201;-80
2022/12/05 11:05:36;;;;;;;11.30;9.17;;;;;;;-1.58;73.50;100788.06;10117964;29;20197;-81
2022/12/05 11:11:23;;;;;;;11.53;8.90;;;;;;;-1.31;72.25;100787.50;10122224;29;20197;-81
2022/12/05 11:17:00;;;;;;;10.97;9.43;;;;;;;-1.56;72.65;100777.59;10133214;29;20480;-82
2022/12/05 11:22:30;;;;;;;11.87;9.17;;;;;;;-1.09;71.56;100776.59;10096996;29;20623;-82
2022/12/05 11:27:53;;;;;;;12.63;10.87;;;;;;;-0.99;71.14;100777.63;10135891;29;20221;-81
2022/12/05 11:33:21;;;;;;;11.77;10.30;;;;;;;-1.41;72.61;100773.47;10118791;29;20307;-81
2022/12/05 11:38:43;;;;;;;13.03;10.60;;;;;;;-1.37;72.56;100777.41;10118337;29;20251;-82
2022/12/05 11:44:27;;;;;;;13.47;11.23;;;;;;;-1.50;73.37;100775.78;10105074;29;20201;-82
2022/12/05 11:50:17;;;;;;;14.13;10.93;;;;;;;-1.15;72.30;100772.06;10123881;29;20220;-81
2022/12/05 11:55:46;;;;;;;13.97;9.93;;;;;;;-1.34;72.49;100765.88;10121939;29;20217;-82
2022/12/05 12:01:23;;;;;;;12.80;10.50;;;;;;;-1.52;73.78;100766.06;10107929;29;20269;-82
2022/12/05 12:06:49;;;;;;;14.20;10.27;;;;;;;-1.56;74.45;100766.56;10120653;29;20194;-82
2022/12/05 12:12:17;;;;;;;12.50;10.27;;;;;;;-1.64;73.55;100769.69;10119466;29;20250;-82
2022/12/05 12:17:55;;;;;;;14.83;10.87;;;;;;;-1.69;74.06;100772.34;10134663;29;20264;-80
2022/12/05 12:23:30;;;;;;;12.43;9.43;;;;;;;-1.87;74.92;100779.94;10123030;29;20674;-80
2022/12/05 12:29:14;;;;;;;14.30;11.40;;;;;;;-1.61;74.24;100780.25;10122758;29;20209;-80
2022/12/05 12:34:56;;;;;;;12.43;9.87;;;;;;;-1.42;73.73;100774.56;10123999;29;20225;-80
2022/12/05 12:40:29;;;;;;;17.07;12.70;;;;;;;-1.19;72.15;100775.31;10138013;29;20197;-80
2022/12/05 12:46:13;;;;;;;14.70;12.17;;;;;;;-1.66;74.02;100771.03;10122925;29;20217;-79
2022/12/05 12:51:43;;;;;;;14.97;11.60;;;;;;;-1.36;73.12;100759.75;10117554;29;20225;-80
2022/12/05 12:57:21;;;;;;;15.67;12.27;;;;;;;-1.52;73.88;100766.91;10109003;29;20225;-80
2022/12/05 13:02:47;;;;;;;15.57;12.43;;;;;;;-1.90;75.59;100767.47;10113983;29;20259;-80
2022/12/05 13:08:32;;;;;;;18.80;12.73;;;;;;;-1.64;74.26;100758.63;10116012;29;20242;-80
2022/12/05 13:13:56;;;;;;;17.27;13.80;;;;;;;-1.49;74.00;100751.75;10103262;29;20217;-80
2022/12/05 13:19:45;;;;;;;15.40;12.70;;;;;;;-1.67;74.74;100755.53;10102268;29;20507;-80
2022/12/05 13:25:13;;;;;;;15.13;12.50;;;;;;;-1.66;74.32;100760.81;10112883;29;20261;-79
2022/12/05 13:30:56;;;;;;;14.60;11.77;;;;;;;-1.80;74.45;100759.41;10109099;29;20191;-81
2022/12/05 13:42:14;;;;;;;14.47;12.33;;;;;;;-1.71;74.44;100769.00;10125278;29;20209;-80
2022/12/05 13:47:58;;;;;;;13.10;11.70;;;;;;;-1.61;74.13;100762.81;10122373;29;20273;-80
2022/12/05 13:53:42;;;;;;;14.47;11.93;;;;;;;-1.62;73.71;100766.66;10134347;29;20563;-79
2022/12/05 13:59:07;;;;;;;13.63;11.67;;;;;;;-1.76;74.91;100766.09;10122807;29;20201;-79
2022/12/05 14:04:44;;;;;;;15.00;11.93;;;;;;;-1.61;74.46;100765.59;10138326;29;20193;-79
2022/12/05 14:10:07;;;;;;;13.70;11.23;;;;;;;-1.58;73.29;100763.19;10122920;29;20198;-80
2022/12/05 14:15:29;;;;;;;13.90;11.73;;;;;;;-1.49;73.58;100774.69;10117364;29;20257;-79
2022/12/05 14:21:00;;;;;;;17.10;13.67;;;;;;;-1.50;73.22;100770.25;10130493;29;20698;-80
2022/12/05 14:26:43;;;;;;;15.27;13.50;;;;;;;-1.36;73.01;100768.88;10128749;29;20590;-80
2022/12/05 14:32:29;;;;;;;13.73;12.23;;;;;;;-1.63;74.55;100776.88;10122340;29;20678;-81
2022/12/05 14:37:55;;;;;;;13.83;11.97;;;;;;;-1.64;74.17;100774.41;10112734;29;20198;-81
2022/12/05 14:43:19;;;;;;;15.83;11.97;;;;;;;-1.91;75.36;100776.84;10124948;29;20276;-81
2022/12/05 14:48:45;;;;;;;14.10;11.40;;;;;;;-1.34;73.34;100782.47;10112797;29;20276;-81
2022/12/05 14:54:15;;;;;;;13.53;11.20;;;;;;;-1.39;73.23;100793.44;10106374;29;20252;-81
2022/12/05 14:59:55;;;;;;;16.10;13.17;;;;;;;-1.72;74.32;100785.81;10119778;29;20204;-81
2022/12/05 15:05:29;;;;;;;16.43;12.83;;;;;;;-1.63;74.49;100790.72;10134639;29;20193;-80
2022/12/05 15:10:57;;;;;;;16.43;13.00;;;;;;;-1.69;74.74;100799.97;10109459;29;20304;-81
2022/12/05 15:16:37;;;;;;;16.30;12.93;;;;;;;-1.75;74.43;100800.94;10112207;29;20256;-81
2022/12/05 15:22:01;;;;;;;15.60;13.50;;;;;;;-2.29;76.99;100799.38;10116062;29;20205;-81
2022/12/05 15:27:23;;;;;;;12.23;10.27;;;;;;;-2.01;75.73;100793.16;10113629;29;20560;-81
2022/12/05 15:32:45;;;;;;;15.17;10.60;;;;;;;-2.11;75.74;100806.72;10116720;29;20650;-80
2022/12/05 15:38:18;;;;;;;10.90;9.37;;;;;;;-1.64;75.05;100805.59;10112589;29;20201;-81
2022/12/05 15:43:40;;;;;;;12.10;10.13;;;;;;;-1.66;76.82;100815.25;10119905;29;20264;-80
2022/12/05 15:49:16;;;;;;;11.07;9.87;;;;;;;-2.04;75.59;100819.38;10106242;29;20317;-80
2022/12/05 15:54:38;;;;;;;19.00;14.60;;;;;;;-1.70;74.85;100812.13;10098246;29;20313;-80
2022/12/05 16:00:04;;;;;;;15.43;13.17;;;;;;;-1.55;74.29;100812.47;10104416;29;20264;-80
2022/12/05 16:05:38;;;;;;;13.87;12.03;;;;;;;-1.60;74.03;100823.41;10110807;29;20237;-81
2022/12/05 16:11:10;;;;;;;12.60;10.47;;;;;;;-1.53;74.30;100830.72;10122262;29;20662;-82
2022/12/05 16:16:35;;;;;;;10.83;9.73;;;;;;;-1.60;74.16;100837.22;10118446;29;20312;-79
2022/12/05 16:22:06;;;;;;;10.37;8.93;;;;;;;-1.52;74.28;100844.31;10137921;29;20193;-79
2022/12/05 16:27:34;;;;;;;13.70;10.17;;;;;;;-1.72;74.86;100841.91;10114537;29;20254;-79
2022/12/05 16:32:59;;;;;;;12.20;10.27;;;;;;;-1.68;74.96;100840.34;10117820;29;20296;-80
2022/12/05 16:38:30;;;;;;;16.13;11.87;;;;;;;-1.55;74.58;100845.63;10126328;29;20600;-79
2022/12/05 16:43:53;;;;;;;12.67;10.53;;;;;;;-1.63;75.48;100843.22;10126051;29;20257;-85
2022/12/05 16:49:18;;;;;;;13.23;10.17;;;;;;;-1.78;76.01;100840.13;10107249;29;20288;-85
2022/12/05 16:54:41;;;;;;;8.90;8.10;;;;;;;-1.78;75.71;100842.91;10116291;29;20265;-82
2022/12/05 17:00:06;;;;;;;8.93;7.90;;;;;;;-1.44;74.18;100835.63;10115254;29;20232;-81
2022/12/05 17:05:29;;;;;;;9.20;8.00;;;;;;;-1.97;75.66;100835.78;10115326;29;20200;-80
2022/12/05 17:10:51;;;;;;;10.87;7.57;;;;;;;-1.57;74.91;100835.88;10125387;29;20297;-80
2022/12/05 17:16:15;;;;;;;8.77;7.87;;;;;;;-1.68;74.73;100836.75;10085222;29;20709;-80
2022/12/05 17:21:38;;;;;;;9.63;8.50;;;;;;;-1.52;75.44;100833.25;10091558;29;20241;-81
2022/12/05 17:27:01;;;;;;;8.97;8.00;;;;;;;-1.72;75.40;100833.63;10093761;29;20237;-82
2022/12/05 17:32:23;;;;;;;9.90;8.63;;;;;;;-2.00;76.07;100830.75;10114287;29;20313;-81
2022/12/05 17:37:45;;;;;;;10.43;8.97;;;;;;;-2.07;77.24;100841.09;10113482;29;20311;-81
2022/12/05 17:43:14;;;;;;;10.53;8.87;;;;;;;-1.94;76.92;100829.81;10109768;29;20289;-80
2022/12/05 17:48:36;;;;;;;9.80;7.97;;;;;;;-2.29;78.41;100830.56;10102078;29;20628;-80
2022/12/05 17:53:58;;;;;;;10.97;8.53;;;;;;;-2.10;77.63;100841.56;10107666;29;20260;-83
2022/12/05 17:59:21;;;;;;;9.27;8.03;;;;;;;-1.68;75.45;100840.34;10079935;29;20229;-80
2022/12/05 18:04:43;;;;;;;11.10;8.27;;;;;;;-1.84;75.66;100835.56;10106299;29;20253;-79
2022/12/05 18:10:07;;;;;;;9.50;7.73;;;;;;;-1.88;75.77;100834.34;10120831;29;20297;-80
2022/12/05 18:15:29;;;;;;;8.17;6.50;;;;;;;-1.91;76.49;100843.13;10106448;29;20268;-79
2022/12/05 18:20:52;;;;;;;7.30;6.43;;;;;;;-1.79;75.59;100837.59;10111487;29;20286;-80
2022/12/05 18:26:14;;;;;;;8.30;6.63;;;;;;;-1.69;76.11;100848.88;10122390;29;20289;-80
2022/12/05 18:31:40;;;;;;;8.43;6.53;;;;;;;-1.73;75.26;100854.03;10098232;29;20232;-80
2022/12/05 18:37:02;;;;;;;6.00;5.50;;;;;;;-1.64;76.52;100849.81;10108042;29;20717;-80
2022/12/05 18:42:24;;;;;;;5.27;4.80;;;;;;;-1.69;76.34;100844.19;10106120;29;20284;-80
2022/12/05 18:47:46;;;;;;;6.23;5.43;;;;;;;-1.96;76.69;100845.78;10125783;29;20229;-80
2022/12/05 18:53:08;;;;;;;6.00;5.40;;;;;;;-1.99;76.95;100854.53;10115812;29;20309;-84
2022/12/05 18:58:30;;;;;;;5.93;5.33;;;;;;;-1.72;75.89;100850.19;10097926;29;20253;-81
2022/12/05 19:03:55;;;;;;;7.97;6.23;;;;;;;-1.56;75.54;100860.53;10095717;29;20221;-86
2022/12/05 19:09:21;;;;;;;6.70;5.97;;;;;;;-1.63;75.54;100870.84;10100910;29;20292;-85
2022/12/05 19:14:45;;;;;;;6.57;5.40;;;;;;;-1.52;74.60;100871.09;10097987;29;20297;-85
2022/12/05 19:20:07;;;;;;;7.10;6.40;;;;;;;-1.65;75.95;100877.72;10118709;29;20236;-79
2022/12/05 19:25:30;;;;;;;7.00;6.30;;;;;;;-1.96;77.58;100889.97;10118063;29;20284;-83
2022/12/05 19:31:26;;;;;;;6.90;5.87;;;;;;;-2.01;77.34;100895.34;10103182;29;20201;-83
2022/12/05 19:36:48;;;;;;;7.00;5.97;;;;;;;-2.04;78.70;100898.63;10112649;29;20647;-81
2022/12/05 19:42:10;;;;;;;7.53;6.77;;;;;;;-2.06;76.85;100895.25;10115629;29;20237;-81
2022/12/05 19:47:32;;;;;;;8.43;6.93;;;;;;;-1.96;77.23;100890.81;10098729;29;20288;-81
2022/12/05 19:52:54;;;;;;;8.60;6.53;;;;;;;-1.84;77.40;100884.44;10097078;29;20249;-80
2022/12/05 19:58:16;;;;;;;7.37;6.20;;;;;;;-1.73;77.89;100887.22;10094056;29;20287;-80
2022/12/05 20:03:40;;;;;;;6.57;5.90;;;;;;;-1.72;76.58;100877.84;10115319;29;20225;-81
2022/12/05 20:09:04;;;;;;;5.53;5.03;;;;;;;-1.91;79.00;100884.56;10103676;29;20229;-80
2022/12/05 20:14:26;;;;;;;5.43;4.93;;;;;;;-2.39;79.26;100890.19;10104510;29;20312;-79
2022/12/05 20:19:48;;;;;;;7.63;5.60;;;;;;;-2.40;79.59;100889.34;10114771;29;20241;-80
2022/12/05 20:25:11;;;;;;;6.57;5.20;;;;;;;-2.03;77.66;100883.72;10105679;29;20217;-81
2022/12/05 20:30:33;;;;;;;5.83;5.23;;;;;;;-2.10;77.86;100891.25;10114925;29;20202;-79
2022/12/05 20:35:59;;;;;;;6.83;6.20;;;;;;;-2.05;78.62;100883.13;10105325;29;20248;-81
2022/12/05 20:41:21;;;;;;;7.57;5.73;;;;;;;-2.04;78.51;100890.31;10115914;29;20276;-79
2022/12/05 20:46:44;;;;;;;6.17;5.47;;;;;;;-1.76;76.99;100887.69;10115392;29;20216;-80
2022/12/05 20:52:06;;;;;;;6.60;5.97;;;;;;;-2.06;77.98;100892.47;10112375;29;20279;-79
2022/12/05 20:57:28;;;;;;;7.60;6.80;;;;;;;-2.15;78.96;100888.31;10093394;29;20306;-78
2022/12/05 21:02:50;;;;;;;9.13;7.57;;;;;;;-2.13;78.27;100880.66;10104453;29;20261;-80
2022/12/05 21:08:12;;;;;;;9.33;8.13;;;;;;;-2.19;78.44;100881.63;10111134;29;20638;-79
2022/12/05 21:13:35;;;;;;;8.27;7.47;;;;;;;-1.96;78.04;100868.72;10112457;29;20232;-79
2022/12/05 21:18:58;;;;;;;7.93;7.13;;;;;;;-2.35;79.52;100877.63;10098338;29;20277;-81
2022/12/05 21:24:21;;;;;;;8.17;7.37;;;;;;;-2.40;79.83;100875.56;10132861;29;20247;-80
2022/12/05 21:29:43;;;;;;;8.43;6.63;;;;;;;-2.13;79.73;100870.44;10117168;29;20755;-81
2022/12/05 21:35:05;;;;;;;7.57;6.43;;;;;;;-2.05;79.35;100872.06;10123145;29;20273;-81
2022/12/05 21:40:28;;;;;;;8.60;7.67;;;;;;;-1.97;78.11;100863.41;10122145;29;20614;-79
2022/12/05 21:45:52;;;;;;;8.83;6.83;;;;;;;-2.16;78.58;100870.09;10131339;29;20201;-80
2022/12/05 21:51:14;;;;;;;11.20;7.00;;;;;;;-2.19;78.73;100863.13;10113004;29;20237;-80
2022/12/05 21:56:37;;;;;;;6.70;6.10;;;;;;;-2.26;79.87;100865.16;10122415;29;20300;-80
2022/12/05 22:01:59;;;;;;;5.70;5.10;;;;;;;-2.19;80.20;100854.84;10102699;29;20321;-80
2022/12/05 22:07:22;;;;;;;6.63;5.47;;;;;;;-2.06;78.69;100864.88;10135646;29;20225;-79
2022/12/05 22:12:44;;;;;;;6.50;5.60;;;;;;;-2.06;78.97;100864.88;10121277;29;20277;-79
2022/12/05 22:18:06;;;;;;;6.77;6.03;;;;;;;-1.87;78.87;100868.34;10136287;29;20240;-79
2022/12/05 22:23:28;;;;;;;7.97;6.37;;;;;;;-1.86;78.61;100864.50;10124693;29;20206;-77
2022/12/05 22:28:54;;;;;;;8.27;6.77;;;;;;;-1.93;78.22;100872.91;10137411;29;20543;-79
2022/12/05 22:34:16;;;;;;;9.60;7.47;;;;;;;-1.94;77.96;100862.94;10132865;29;20221;-79
2022/12/05 22:39:39;;;;;;;10.43;7.70;;;;;;;-1.79;78.67;100865.25;10121676;29;20202;-79
2022/12/05 22:45:01;;;;;;;9.60;7.47;;;;;;;-1.85;77.91;100861.50;10118957;29;20201;-77
2022/12/05 22:50:23;;;;;;;9.40;7.07;;;;;;;-1.93;78.58;100859.09;10113897;29;20234;-79
2022/12/05 22:55:45;;;;;;;9.37;7.20;;;;;;;-1.93;78.57;100850.81;10111804;29;20225;-79
2022/12/05 23:01:13;;;;;;;9.30;7.20;;;;;;;-1.96;79.36;100859.59;10122464;29;20230;-79
2022/12/05 23:06:36;;;;;;;7.87;6.83;;;;;;;-1.93;79.78;100853.59;10114448;29;20201;-79
2022/12/05 23:11:58;;;;;;;9.93;7.20;;;;;;;-1.86;78.66;100853.44;10115698;29;20213;-79
2022/12/05 23:17:20;;;;;;;10.70;7.60;;;;;;;-2.02;79.72;100843.94;10117749;29;20233;-79
2022/12/05 23:22:42;;;;;;;11.13;7.33;;;;;;;-1.92;79.55;100838.69;10118979;29;20512;-79
2022/12/05 23:28:05;;;;;;;8.10;6.83;;;;;;;-1.79;78.77;100838.44;10136368;29;20275;-79
2022/12/05 23:33:27;;;;;;;9.40;6.57;;;;;;;-2.08;79.11;100844.94;10111028;29;20233;-79
2022/12/05 23:38:49;;;;;;;7.33;6.27;;;;;;;-1.94;79.85;100840.84;10116442;29;20630;-79
2022/12/05 23:44:11;;;;;;;10.53;6.83;;;;;;;-1.82;80.19;100833.41;10125372;29;20198;-79
2022/12/05 23:49:34;;;;;;;8.90;6.37;;;;;;;-2.13;80.70;100845.59;10122528;29;20232;-82
2022/12/05 23:54:56;;;;;;;10.40;8.23;;;;;;;-2.07;80.07;100846.59;10130853;29;20301;-79
